sensor_id;sensor_type;location;lat;lon;timestamp;pressure;altitude;pressure_sealevel;temperature;humidity
55191;BME280;41070;50.360;18.742;2022-12-16T00:01:53;97958.29;;;-2.61;88.78
55191;BME280;41070;50.360;18.742;2022-12-16T00:04:20;97951.94;;;-2.59;88.91
55191;BME280;41070;50.360;18.742;2022-12-16T00:06:46;97954.48;;;-2.56;88.77
55191;BME280;41070;50.360;18.742;2022-12-16T00:09:12;97968.86;;;-2.56;88.65
55191;BME280;41070;50.360;18.742;2022-12-16T00:11:38;97974.60;;;-2.56;88.74
55191;BME280;41070;50.360;18.742;2022-12-16T00:14:05;97978.33;;;-2.54;88.65
55191;BME280;41070;50.360;18.742;2022-12-16T00:16:31;97977.99;;;-2.53;88.69
55191;BME280;41070;50.360;18.742;2022-12-16T00:18:57;97960.54;;;-2.52;88.49
55191;BME280;41070;50.360;18.742;2022-12-16T00:21:23;97944.11;;;-2.53;88.47
55191;BME280;41070;50.360;18.742;2022-12-16T00:23:57;97941.96;;;-2.56;88.28
55191;BME280;41070;50.360;18.742;2022-12-16T00:26:23;97951.89;;;-2.59;88.22
55191;BME280;41070;50.360;18.742;2022-12-16T00:28:50;97950.31;;;-2.57;88.48
55191;BME280;41070;50.360;18.742;2022-12-16T00:31:16;97954.16;;;-2.55;88.43
55191;BME280;41070;50.360;18.742;2022-12-16T00:33:42;97951.45;;;-2.55;88.30
55191;BME280;41070;50.360;18.742;2022-12-16T00:36:09;97946.16;;;-2.57;88.11
55191;BME280;41070;50.360;18.742;2022-12-16T00:38:35;97933.47;;;-2.61;88.19
55191;BME280;41070;50.360;18.742;2022-12-16T00:41:02;97931.50;;;-2.64;88.09
55191;BME280;41070;50.360;18.742;2022-12-16T00:43:28;97927.09;;;-2.65;88.21
55191;BME280;41070;50.360;18.742;2022-12-16T00:45:55;97914.91;;;-2.68;88.13
55191;BME280;41070;50.360;18.742;2022-12-16T00:48:21;97910.83;;;-2.68;88.17
55191;BME280;41070;50.360;18.742;2022-12-16T00:50:49;97912.02;;;-2.69;88.22
55191;BME280;41070;50.360;18.742;2022-12-16T00:53:16;97922.72;;;-2.69;88.19
55191;BME280;41070;50.360;18.742;2022-12-16T00:55:42;97932.63;;;-2.70;88.12
55191;BME280;41070;50.360;18.742;2022-12-16T00:58:08;97933.78;;;-2.70;88.23
55191;BME280;41070;50.360;18.742;2022-12-16T01:00:35;97927.70;;;-2.70;88.08
55191;BME280;41070;50.360;18.742;2022-12-16T01:03:01;97914.46;;;-2.73;88.11
55191;BME280;41070;50.360;18.742;2022-12-16T01:05:27;97917.05;;;-2.75;88.24
55191;BME280;41070;50.360;18.742;2022-12-16T01:07:54;97929.02;;;-2.71;88.30
55191;BME280;41070;50.360;18.742;2022-12-16T01:10:22;97919.79;;;-2.71;88.22
55191;BME280;41070;50.360;18.742;2022-12-16T01:12:49;97919.27;;;-2.71;88.23
55191;BME280;41070;50.360;18.742;2022-12-16T01:15:16;97910.00;;;-2.72;88.32
55191;BME280;41070;50.360;18.742;2022-12-16T01:17:43;97901.94;;;-2.70;88.11
55191;BME280;41070;50.360;18.742;2022-12-16T01:20:10;97896.08;;;-2.73;87.99
55191;BME280;41070;50.360;18.742;2022-12-16T01:22:36;97889.55;;;-2.75;88.16
55191;BME280;41070;50.360;18.742;2022-12-16T01:25:03;97889.35;;;-2.77;88.16
55191;BME280;41070;50.360;18.742;2022-12-16T01:27:29;97890.77;;;-2.79;88.25
55191;BME280;41070;50.360;18.742;2022-12-16T01:29:55;97887.73;;;-2.78;88.33
55191;BME280;41070;50.360;18.742;2022-12-16T01:32:22;97882.11;;;-2.77;88.28
55191;BME280;41070;50.360;18.742;2022-12-16T01:34:52;97876.51;;;-2.75;88.36
55191;BME280;41070;50.360;18.742;2022-12-16T01:37:19;97880.95;;;-2.74;88.43
55191;BME280;41070;50.360;18.742;2022-12-16T01:39:46;97883.02;;;-2.73;88.23
55191;BME280;41070;50.360;18.742;2022-12-16T01:42:14;97881.41;;;-2.71;88.39
55191;BME280;41070;50.360;18.742;2022-12-16T01:44:46;97879.35;;;-2.70;88.15
55191;BME280;41070;50.360;18.742;2022-12-16T01:47:19;97862.91;;;-2.72;88.18
55191;BME280;41070;50.360;18.742;2022-12-16T01:49:55;97846.01;;;-2.74;88.34
55191;BME280;41070;50.360;18.742;2022-12-16T01:52:38;97836.02;;;-2.75;88.29
55191;BME280;41070;50.360;18.742;2022-12-16T01:55:23;97832.99;;;-2.78;88.32
55191;BME280;41070;50.360;18.742;2022-12-16T01:57:54;97825.80;;;-2.82;88.44
55191;BME280;41070;50.360;18.742;2022-12-16T02:00:21;97823.13;;;-2.83;88.65
55191;BME280;41070;50.360;18.742;2022-12-16T02:02:48;97823.29;;;-2.84;88.72
55191;BME280;41070;50.360;18.742;2022-12-16T02:05:17;97819.71;;;-2.87;88.67
55191;BME280;41070;50.360;18.742;2022-12-16T02:10:49;97823.15;;;-2.92;89.12
55191;BME280;41070;50.360;18.742;2022-12-16T02:16:10;97808.84;;;-2.92;89.32
55191;BME280;41070;50.360;18.742;2022-12-16T02:21:51;97797.02;;;-2.92;89.63
55191;BME280;41070;50.360;18.742;2022-12-16T02:27:33;97782.16;;;-2.95;89.81
55191;BME280;41070;50.360;18.742;2022-12-16T02:30:07;97781.68;;;-2.93;89.77
55191;BME280;41070;50.360;18.742;2022-12-16T02:32:44;97780.92;;;-2.91;89.69
55191;BME280;41070;50.360;18.742;2022-12-16T02:35:34;97776.58;;;-2.90;89.88
55191;BME280;41070;50.360;18.742;2022-12-16T02:38:22;97774.08;;;-2.91;89.74
55191;BME280;41070;50.360;18.742;2022-12-16T02:41:00;97778.31;;;-2.91;89.75
55191;BME280;41070;50.360;18.742;2022-12-16T02:46:13;97765.75;;;-2.91;90.06
55191;BME280;41070;50.360;18.742;2022-12-16T02:48:39;97766.42;;;-2.89;89.92
55191;BME280;41070;50.360;18.742;2022-12-16T02:51:06;97760.29;;;-2.89;90.09
55191;BME280;41070;50.360;18.742;2022-12-16T02:53:34;97759.16;;;-2.90;89.90
55191;BME280;41070;50.360;18.742;2022-12-16T03:02:13;97746.50;;;-2.92;90.27
55191;BME280;41070;50.360;18.742;2022-12-16T03:04:48;97742.66;;;-2.94;90.19
55191;BME280;41070;50.360;18.742;2022-12-16T03:07:23;97733.46;;;-2.93;90.36
55191;BME280;41070;50.360;18.742;2022-12-16T03:09:55;97730.11;;;-2.92;90.34
55191;BME280;41070;50.360;18.742;2022-12-16T03:12:26;97730.52;;;-2.91;90.14
55191;BME280;41070;50.360;18.742;2022-12-16T03:14:53;97735.36;;;-2.96;90.00
55191;BME280;41070;50.360;18.742;2022-12-16T03:17:23;97738.00;;;-2.97;90.23
55191;BME280;41070;50.360;18.742;2022-12-16T03:20:11;97734.59;;;-2.96;90.20
55191;BME280;41070;50.360;18.742;2022-12-16T03:22:37;97733.30;;;-2.98;90.04
55191;BME280;41070;50.360;18.742;2022-12-16T03:25:07;97729.17;;;-3.00;90.17
55191;BME280;41070;50.360;18.742;2022-12-16T03:27:55;97726.31;;;-3.03;90.09
55191;BME280;41070;50.360;18.742;2022-12-16T03:30:35;97728.10;;;-3.04;90.31
55191;BME280;41070;50.360;18.742;2022-12-16T03:33:16;97724.71;;;-3.05;90.35
55191;BME280;41070;50.360;18.742;2022-12-16T03:35:56;97724.33;;;-3.04;90.41
55191;BME280;41070;50.360;18.742;2022-12-16T03:38:28;97717.27;;;-3.05;90.24
55191;BME280;41070;50.360;18.742;2022-12-16T03:41:01;97716.40;;;-3.07;90.08
55191;BME280;41070;50.360;18.742;2022-12-16T03:43:32;97711.35;;;-3.11;90.21
55191;BME280;41070;50.360;18.742;2022-12-16T03:46:05;97706.29;;;-3.13;90.36
55191;BME280;41070;50.360;18.742;2022-12-16T03:48:35;97710.26;;;-3.12;90.45
55191;BME280;41070;50.360;18.742;2022-12-16T03:51:12;97715.02;;;-3.12;90.44
55191;BME280;41070;50.360;18.742;2022-12-16T03:53:42;97708.81;;;-3.14;90.27
55191;BME280;41070;50.360;18.742;2022-12-16T03:56:12;97705.59;;;-3.16;90.58
55191;BME280;41070;50.360;18.742;2022-12-16T03:58:42;97707.72;;;-3.15;90.41
55191;BME280;41070;50.360;18.742;2022-12-16T04:01:13;97708.98;;;-3.15;90.48
55191;BME280;41070;50.360;18.742;2022-12-16T04:03:43;97711.62;;;-3.20;90.21
55191;BME280;41070;50.360;18.742;2022-12-16T04:06:12;97708.13;;;-3.20;90.19
55191;BME280;41070;50.360;18.742;2022-12-16T04:08:46;97707.08;;;-3.20;90.48
55191;BME280;41070;50.360;18.742;2022-12-16T04:11:14;97709.27;;;-3.20;90.43
55191;BME280;41070;50.360;18.742;2022-12-16T04:13:58;97707.27;;;-3.19;90.36
55191;BME280;41070;50.360;18.742;2022-12-16T04:16:43;97706.76;;;-3.20;90.45
55191;BME280;41070;50.360;18.742;2022-12-16T04:19:31;97709.21;;;-3.17;90.53
55191;BME280;41070;50.360;18.742;2022-12-16T04:22:19;97712.10;;;-3.20;90.34
55191;BME280;41070;50.360;18.742;2022-12-16T04:25:26;97709.71;;;-3.21;90.70
55191;BME280;41070;50.360;18.742;2022-12-16T04:27:54;97706.77;;;-3.21;90.69
55191;BME280;41070;50.360;18.742;2022-12-16T04:30:23;97703.95;;;-3.22;90.56
55191;BME280;41070;50.360;18.742;2022-12-16T04:32:55;97701.02;;;-3.23;90.71
55191;BME280;41070;50.360;18.742;2022-12-16T04:35:44;97702.13;;;-3.23;90.76
55191;BME280;41070;50.360;18.742;2022-12-16T04:38:33;97713.02;;;-3.24;90.97
55191;BME280;41070;50.360;18.742;2022-12-16T04:41:20;97715.24;;;-3.26;90.76
55191;BME280;41070;50.360;18.742;2022-12-16T04:44:08;97711.98;;;-3.24;91.03
55191;BME280;41070;50.360;18.742;2022-12-16T04:46:55;97713.33;;;-3.24;90.86
55191;BME280;41070;50.360;18.742;2022-12-16T04:49:43;97706.27;;;-3.24;90.74
55191;BME280;41070;50.360;18.742;2022-12-16T04:52:30;97714.45;;;-3.25;90.99
55191;BME280;41070;50.360;18.742;2022-12-16T04:55:18;97721.58;;;-3.26;90.87
55191;BME280;41070;50.360;18.742;2022-12-16T04:58:05;97716.09;;;-3.27;90.77
55191;BME280;41070;50.360;18.742;2022-12-16T05:01:12;97714.52;;;-3.28;90.98
55191;BME280;41070;50.360;18.742;2022-12-16T05:03:59;97707.83;;;-3.29;90.93
55191;BME280;41070;50.360;18.742;2022-12-16T05:06:47;97698.86;;;-3.34;90.92
55191;BME280;41070;50.360;18.742;2022-12-16T05:09:40;97700.85;;;-3.35;91.07
55191;BME280;41070;50.360;18.742;2022-12-16T05:12:27;97700.82;;;-3.38;90.93
55191;BME280;41070;50.360;18.742;2022-12-16T05:15:15;97701.98;;;-3.40;91.21
55191;BME280;41070;50.360;18.742;2022-12-16T05:18:08;97704.63;;;-3.42;91.41
55191;BME280;41070;50.360;18.742;2022-12-16T05:21:00;97700.77;;;-3.45;91.33
55191;BME280;41070;50.360;18.742;2022-12-16T05:23:48;97696.80;;;-3.48;91.61
55191;BME280;41070;50.360;18.742;2022-12-16T05:26:35;97688.55;;;-3.49;91.76
55191;BME280;41070;50.360;18.742;2022-12-16T05:29:23;97680.64;;;-3.48;91.69
55191;BME280;41070;50.360;18.742;2022-12-16T05:32:10;97678.23;;;-3.48;91.86
55191;BME280;41070;50.360;18.742;2022-12-16T05:34:58;97675.17;;;-3.51;91.80
55191;BME280;41070;50.360;18.742;2022-12-16T05:37:45;97673.09;;;-3.53;91.72
55191;BME280;41070;50.360;18.742;2022-12-16T05:40:34;97676.55;;;-3.53;92.03
55191;BME280;41070;50.360;18.742;2022-12-16T05:43:21;97677.34;;;-3.53;91.84
55191;BME280;41070;50.360;18.742;2022-12-16T05:46:10;97668.77;;;-3.53;91.77
55191;BME280;41070;50.360;18.742;2022-12-16T05:48:57;97665.30;;;-3.52;91.90
55191;BME280;41070;50.360;18.742;2022-12-16T05:51:45;97660.39;;;-3.54;91.85
55191;BME280;41070;50.360;18.742;2022-12-16T05:54:32;97653.08;;;-3.56;91.82
55191;BME280;41070;50.360;18.742;2022-12-16T05:57:21;97650.42;;;-3.58;91.81
55191;BME280;41070;50.360;18.742;2022-12-16T06:00:10;97659.33;;;-3.58;91.96
55191;BME280;41070;50.360;18.742;2022-12-16T06:02:57;97667.02;;;-3.59;92.04
55191;BME280;41070;50.360;18.742;2022-12-16T06:05:45;97665.20;;;-3.61;91.97
55191;BME280;41070;50.360;18.742;2022-12-16T06:08:37;97666.66;;;-3.60;91.82
55191;BME280;41070;50.360;18.742;2022-12-16T06:11:24;97667.18;;;-3.61;91.98
55191;BME280;41070;50.360;18.742;2022-12-16T06:14:12;97675.86;;;-3.61;92.07
55191;BME280;41070;50.360;18.742;2022-12-16T06:16:59;97672.05;;;-3.61;92.02
55191;BME280;41070;50.360;18.742;2022-12-16T06:19:56;97669.59;;;-3.60;92.03
55191;BME280;41070;50.360;18.742;2022-12-16T06:22:50;97668.08;;;-3.62;91.98
55191;BME280;41070;50.360;18.742;2022-12-16T06:25:38;97660.54;;;-3.61;92.18
55191;BME280;41070;50.360;18.742;2022-12-16T06:28:26;97661.58;;;-3.59;92.01
55191;BME280;41070;50.360;18.742;2022-12-16T06:31:13;97661.42;;;-3.60;92.14
55191;BME280;41070;50.360;18.742;2022-12-16T06:34:03;97654.38;;;-3.62;91.97
55191;BME280;41070;50.360;18.742;2022-12-16T06:36:51;97641.59;;;-3.65;92.07
55191;BME280;41070;50.360;18.742;2022-12-16T06:39:42;97633.70;;;-3.69;92.18
55191;BME280;41070;50.360;18.742;2022-12-16T06:42:32;97636.13;;;-3.70;92.18
55191;BME280;41070;50.360;18.742;2022-12-16T06:45:19;97641.56;;;-3.70;92.19
55191;BME280;41070;50.360;18.742;2022-12-16T06:48:07;97640.89;;;-3.70;92.49
55191;BME280;41070;50.360;18.742;2022-12-16T06:50:54;97643.19;;;-3.70;92.33
55191;BME280;41070;50.360;18.742;2022-12-16T06:53:42;97637.39;;;-3.70;92.66
55191;BME280;41070;50.360;18.742;2022-12-16T06:56:29;97642.40;;;-3.69;92.56
55191;BME280;41070;50.360;18.742;2022-12-16T06:59:18;97640.20;;;-3.69;92.45
55191;BME280;41070;50.360;18.742;2022-12-16T07:02:09;97647.30;;;-3.68;92.72
55191;BME280;41070;50.360;18.742;2022-12-16T07:04:57;97649.13;;;-3.67;92.43
55191;BME280;41070;50.360;18.742;2022-12-16T07:07:48;97649.71;;;-3.67;92.49
55191;BME280;41070;50.360;18.742;2022-12-16T07:10:37;97656.92;;;-3.67;92.36
55191;BME280;41070;50.360;18.742;2022-12-16T07:13:25;97658.64;;;-3.65;92.37
55191;BME280;41070;50.360;18.742;2022-12-16T07:16:12;97652.62;;;-3.64;92.38
55191;BME280;41070;50.360;18.742;2022-12-16T07:19:05;97648.70;;;-3.64;92.52
55191;BME280;41070;50.360;18.742;2022-12-16T07:21:52;97642.78;;;-3.64;92.56
55191;BME280;41070;50.360;18.742;2022-12-16T07:24:58;97636.70;;;-3.61;92.48
55191;BME280;41070;50.360;18.742;2022-12-16T07:27:57;97626.52;;;-3.58;92.73
55191;BME280;41070;50.360;18.742;2022-12-16T07:30:46;97621.76;;;-3.55;93.47
55191;BME280;41070;50.360;18.742;2022-12-16T07:33:42;97622.31;;;-3.48;93.14
55191;BME280;41070;50.360;18.742;2022-12-16T07:36:48;97622.27;;;-3.44;93.13
55191;BME280;41070;50.360;18.742;2022-12-16T07:39:43;97619.91;;;-3.42;92.72
55191;BME280;41070;50.360;18.742;2022-12-16T07:45:18;97619.85;;;-3.41;92.73
